sensor_id;sensor_type;location;lat;lon;timestamp;P1;durP1;ratioP1;P2;durP2;ratioP2
3949;SDS011;53057;50.988;6.314;2023-03-17T00:00:09;8.80;;;3.33;;
3949;SDS011;53057;50.988;6.314;2023-03-17T00:02:37;4.30;;;3.10;;
3949;SDS011;53057;50.988;6.314;2023-03-17T00:05:20;4.50;;;1.90;;
3949;SDS011;53057;50.988;6.314;2023-03-17T00:07:48;7.03;;;2.27;;
3949;SDS011;53057;50.988;6.314;2023-03-17T00:10:17;4.83;;;2.43;;
3949;SDS011;53057;50.988;6.314;2023-03-17T00:12:44;7.30;;;2.43;;
3949;SDS011;53057;50.988;6.314;2023-03-17T00:15:11;7.53;;;2.70;;
3949;SDS011;53057;50.988;6.314;2023-03-17T00:17:38;3.43;;;2.73;;
3949;SDS011;53057;50.988;6.314;2023-03-17T00:20:05;5.60;;;3.23;;
3949;SDS011;53057;50.988;6.314;2023-03-17T00:22:32;6.77;;;3.53;;
3949;SDS011;53057;50.988;6.314;2023-03-17T00:24:58;3.57;;;3.03;;
3949;SDS011;53057;50.988;6.314;2023-03-17T00:27:25;4.20;;;3.20;;
3949;SDS011;53057;50.988;6.314;2023-03-17T00:29:51;4.70;;;2.63;;
3949;SDS011;53057;50.988;6.314;2023-03-17T00:32:18;3.10;;;2.43;;
3949;SDS011;53057;50.988;6.314;2023-03-17T00:34:50;5.73;;;2.97;;
3949;SDS011;53057;50.988;6.314;2023-03-17T00:37:16;2.67;;;2.40;;
3949;SDS011;53057;50.988;6.314;2023-03-17T00:39:43;6.70;;;2.43;;
3949;SDS011;53057;50.988;6.314;2023-03-17T00:42:10;2.97;;;2.77;;
3949;SDS011;53057;50.988;6.314;2023-03-17T00:44:37;2.13;;;1.80;;
3949;SDS011;53057;50.988;6.314;2023-03-17T00:47:04;3.70;;;2.50;;
3949;SDS011;53057;50.988;6.314;2023-03-17T00:49:31;6.70;;;4.47;;
3949;SDS011;53057;50.988;6.314;2023-03-17T00:51:58;2.00;;;1.90;;
3949;SDS011;53057;50.988;6.314;2023-03-17T00:54:25;3.20;;;2.53;;
3949;SDS011;53057;50.988;6.314;2023-03-17T00:56:52;2.70;;;2.03;;
3949;SDS011;53057;50.988;6.314;2023-03-17T01:01:46;2.20;;;1.07;;
3949;SDS011;53057;50.988;6.314;2023-03-17T01:04:13;7.13;;;2.00;;
3949;SDS011;53057;50.988;6.314;2023-03-17T01:06:40;4.20;;;2.97;;
3949;SDS011;53057;50.988;6.314;2023-03-17T01:09:11;3.40;;;2.70;;
3949;SDS011;53057;50.988;6.314;2023-03-17T01:11:38;4.33;;;2.60;;
3949;SDS011;53057;50.988;6.314;2023-03-17T01:14:07;7.03;;;3.30;;
3949;SDS011;53057;50.988;6.314;2023-03-17T01:16:34;1.60;;;1.43;;
3949;SDS011;53057;50.988;6.314;2023-03-17T01:19:01;2.30;;;1.93;;
3949;SDS011;53057;50.988;6.314;2023-03-17T01:21:28;5.27;;;1.70;;
3949;SDS011;53057;50.988;6.314;2023-03-17T01:23:54;3.43;;;1.90;;
3949;SDS011;53057;50.988;6.314;2023-03-17T01:26:22;4.13;;;2.73;;
3949;SDS011;53057;50.988;6.314;2023-03-17T01:28:51;2.97;;;2.40;;
3949;SDS011;53057;50.988;6.314;2023-03-17T01:31:18;4.40;;;2.27;;
3949;SDS011;53057;50.988;6.314;2023-03-17T01:33:45;5.67;;;3.40;;
3949;SDS011;53057;50.988;6.314;2023-03-17T01:36:12;2.17;;;2.00;;
3949;SDS011;53057;50.988;6.314;2023-03-17T01:38:39;2.07;;;1.87;;
3949;SDS011;53057;50.988;6.314;2023-03-17T01:41:06;7.47;;;3.27;;
3949;SDS011;53057;50.988;6.314;2023-03-17T01:43:32;5.03;;;2.37;;
3949;SDS011;53057;50.988;6.314;2023-03-17T01:51:37;2.10;;;1.90;;
3949;SDS011;53057;50.988;6.314;2023-03-17T01:54:09;5.23;;;3.17;;
3949;SDS011;53057;50.988;6.314;2023-03-17T01:56:37;5.67;;;3.70;;
3949;SDS011;53057;50.988;6.314;2023-03-17T01:59:06;9.37;;;5.13;;
3949;SDS011;53057;50.988;6.314;2023-03-17T02:01:35;8.77;;;3.10;;
3949;SDS011;53057;50.988;6.314;2023-03-17T02:04:04;4.53;;;3.70;;
3949;SDS011;53057;50.988;6.314;2023-03-17T02:06:32;8.80;;;3.10;;
3949;SDS011;53057;50.988;6.314;2023-03-17T02:08:59;6.50;;;3.63;;
3949;SDS011;53057;50.988;6.314;2023-03-17T02:11:27;5.20;;;4.30;;
3949;SDS011;53057;50.988;6.314;2023-03-17T02:13:53;9.93;;;5.10;;
3949;SDS011;53057;50.988;6.314;2023-03-17T02:16:20;6.53;;;4.93;;
3949;SDS011;53057;50.988;6.314;2023-03-17T02:18:46;4.40;;;2.60;;
3949;SDS011;53057;50.988;6.314;2023-03-17T02:21:48;3.17;;;2.87;;
3949;SDS011;53057;50.988;6.314;2023-03-17T02:24:09;4.13;;;3.37;;
3949;SDS011;53057;50.988;6.314;2023-03-17T02:26:37;5.60;;;3.10;;
3949;SDS011;53057;50.988;6.314;2023-03-17T02:29:04;6.30;;;3.40;;
3949;SDS011;53057;50.988;6.314;2023-03-17T02:31:32;4.27;;;3.33;;
3949;SDS011;53057;50.988;6.314;2023-03-17T02:33:58;5.90;;;2.83;;
3949;SDS011;53057;50.988;6.314;2023-03-17T02:36:26;5.13;;;3.00;;
3949;SDS011;53057;50.988;6.314;2023-03-17T02:38:53;9.00;;;2.90;;
3949;SDS011;53057;50.988;6.314;2023-03-17T02:41:19;2.13;;;2.00;;
3949;SDS011;53057;50.988;6.314;2023-03-17T02:43:46;3.50;;;2.80;;
3949;SDS011;53057;50.988;6.314;2023-03-17T02:46:13;3.37;;;2.83;;
3949;SDS011;53057;50.988;6.314;2023-03-17T02:48:40;3.07;;;2.80;;
3949;SDS011;53057;50.988;6.314;2023-03-17T02:51:06;4.30;;;3.33;;
3949;SDS011;53057;50.988;6.314;2023-03-17T02:53:33;6.07;;;3.77;;
3949;SDS011;53057;50.988;6.314;2023-03-17T02:56:00;3.23;;;2.80;;
3949;SDS011;53057;50.988;6.314;2023-03-17T02:58:26;6.47;;;3.23;;
3949;SDS011;53057;50.988;6.314;2023-03-17T03:00:52;4.40;;;3.00;;
3949;SDS011;53057;50.988;6.314;2023-03-17T03:03:19;4.23;;;3.83;;
3949;SDS011;53057;50.988;6.314;2023-03-17T03:05:46;5.67;;;3.00;;
3949;SDS011;53057;50.988;6.314;2023-03-17T03:08:13;3.67;;;3.37;;
3949;SDS011;53057;50.988;6.314;2023-03-17T03:10:39;3.00;;;2.80;;
3949;SDS011;53057;50.988;6.314;2023-03-17T03:13:07;4.60;;;2.53;;
3949;SDS011;53057;50.988;6.314;2023-03-17T03:15:34;7.40;;;3.00;;
3949;SDS011;53057;50.988;6.314;2023-03-17T03:18:01;2.90;;;2.60;;
3949;SDS011;53057;50.988;6.314;2023-03-17T03:20:27;4.53;;;1.73;;
3949;SDS011;53057;50.988;6.314;2023-03-17T03:22:54;5.37;;;2.47;;
3949;SDS011;53057;50.988;6.314;2023-03-17T03:25:21;5.30;;;3.20;;
3949;SDS011;53057;50.988;6.314;2023-03-17T03:27:48;2.93;;;2.73;;
3949;SDS011;53057;50.988;6.314;2023-03-17T03:30:14;4.50;;;2.60;;
3949;SDS011;53057;50.988;6.314;2023-03-17T03:32:40;3.53;;;2.57;;
3949;SDS011;53057;50.988;6.314;2023-03-17T03:35:07;5.67;;;3.50;;
3949;SDS011;53057;50.988;6.314;2023-03-17T03:37:34;4.17;;;3.40;;
3949;SDS011;53057;50.988;6.314;2023-03-17T03:40:01;6.17;;;2.87;;
3949;SDS011;53057;50.988;6.314;2023-03-17T03:42:28;4.47;;;3.03;;
3949;SDS011;53057;50.988;6.314;2023-03-17T03:44:55;4.50;;;3.70;;
3949;SDS011;53057;50.988;6.314;2023-03-17T03:47:21;12.40;;;2.40;;
3949;SDS011;53057;50.988;6.314;2023-03-17T03:49:48;8.07;;;3.63;;
3949;SDS011;53057;50.988;6.314;2023-03-17T03:52:14;6.00;;;3.60;;
3949;SDS011;53057;50.988;6.314;2023-03-17T03:54:41;4.90;;;3.30;;
3949;SDS011;53057;50.988;6.314;2023-03-17T03:57:08;4.33;;;2.73;;
3949;SDS011;53057;50.988;6.314;2023-03-17T03:59:34;3.47;;;2.40;;
3949;SDS011;53057;50.988;6.314;2023-03-17T04:02:02;2.97;;;2.30;;
3949;SDS011;53057;50.988;6.314;2023-03-17T04:04:28;5.13;;;3.10;;
3949;SDS011;53057;50.988;6.314;2023-03-17T04:06:55;2.90;;;2.60;;
3949;SDS011;53057;50.988;6.314;2023-03-17T04:09:22;2.70;;;2.23;;
3949;SDS011;53057;50.988;6.314;2023-03-17T04:11:48;3.80;;;3.03;;
3949;SDS011;53057;50.988;6.314;2023-03-17T04:14:15;3.10;;;2.47;;
3949;SDS011;53057;50.988;6.314;2023-03-17T04:16:42;3.07;;;2.50;;
3949;SDS011;53057;50.988;6.314;2023-03-17T04:19:09;4.00;;;2.60;;
3949;SDS011;53057;50.988;6.314;2023-03-17T04:21:36;5.53;;;2.90;;
3949;SDS011;53057;50.988;6.314;2023-03-17T04:24:03;9.57;;;3.80;;
3949;SDS011;53057;50.988;6.314;2023-03-17T04:26:30;8.27;;;3.10;;
3949;SDS011;53057;50.988;6.314;2023-03-17T04:28:57;3.60;;;2.50;;
3949;SDS011;53057;50.988;6.314;2023-03-17T04:31:24;3.30;;;2.53;;
3949;SDS011;53057;50.988;6.314;2023-03-17T04:33:51;3.30;;;3.00;;
3949;SDS011;53057;50.988;6.314;2023-03-17T04:36:18;3.37;;;2.30;;
3949;SDS011;53057;50.988;6.314;2023-03-17T04:38:45;10.83;;;5.60;;
3949;SDS011;53057;50.988;6.314;2023-03-17T04:41:12;4.67;;;2.70;;
3949;SDS011;53057;50.988;6.314;2023-03-17T04:43:39;3.60;;;2.40;;
3949;SDS011;53057;50.988;6.314;2023-03-17T04:46:06;3.00;;;2.43;;
3949;SDS011;53057;50.988;6.314;2023-03-17T04:48:33;1.93;;;1.60;;
3949;SDS011;53057;50.988;6.314;2023-03-17T04:51:00;2.53;;;2.27;;
3949;SDS011;53057;50.988;6.314;2023-03-17T04:53:27;3.97;;;3.53;;
3949;SDS011;53057;50.988;6.314;2023-03-17T04:55:54;9.10;;;2.43;;
3949;SDS011;53057;50.988;6.314;2023-03-17T04:58:20;3.63;;;3.20;;
3949;SDS011;53057;50.988;6.314;2023-03-17T05:00:56;3.67;;;2.70;;
3949;SDS011;53057;50.988;6.314;2023-03-17T05:03:23;2.93;;;2.30;;
3949;SDS011;53057;50.988;6.314;2023-03-17T05:05:53;6.53;;;3.10;;
3949;SDS011;53057;50.988;6.314;2023-03-17T05:08:20;4.20;;;2.80;;
3949;SDS011;53057;50.988;6.314;2023-03-17T05:10:46;4.03;;;2.40;;
3949;SDS011;53057;50.988;6.314;2023-03-17T05:13:13;5.47;;;3.13;;
3949;SDS011;53057;50.988;6.314;2023-03-17T05:15:39;5.43;;;3.10;;
3949;SDS011;53057;50.988;6.314;2023-03-17T05:18:06;7.00;;;3.60;;
3949;SDS011;53057;50.988;6.314;2023-03-17T05:20:33;6.00;;;3.40;;
3949;SDS011;53057;50.988;6.314;2023-03-17T05:23:00;15.93;;;3.83;;
3949;SDS011;53057;50.988;6.314;2023-03-17T05:25:27;6.30;;;4.50;;
3949;SDS011;53057;50.988;6.314;2023-03-17T05:27:53;9.60;;;4.50;;
3949;SDS011;53057;50.988;6.314;2023-03-17T05:30:20;3.93;;;2.50;;
3949;SDS011;53057;50.988;6.314;2023-03-17T05:32:46;5.13;;;2.70;;
3949;SDS011;53057;50.988;6.314;2023-03-17T05:35:13;15.40;;;4.13;;
3949;SDS011;53057;50.988;6.314;2023-03-17T05:37:40;5.33;;;3.60;;
3949;SDS011;53057;50.988;6.314;2023-03-17T05:40:07;3.00;;;2.80;;
3949;SDS011;53057;50.988;6.314;2023-03-17T05:42:33;6.30;;;3.03;;
3949;SDS011;53057;50.988;6.314;2023-03-17T05:45:00;4.27;;;2.73;;
3949;SDS011;53057;50.988;6.314;2023-03-17T05:47:27;6.57;;;3.27;;
3949;SDS011;53057;50.988;6.314;2023-03-17T05:49:53;13.63;;;3.60;;
3949;SDS011;53057;50.988;6.314;2023-03-17T05:52:20;17.77;;;4.50;;
3949;SDS011;53057;50.988;6.314;2023-03-17T05:54:47;4.23;;;2.90;;
3949;SDS011;53057;50.988;6.314;2023-03-17T05:57:15;6.73;;;3.77;;
3949;SDS011;53057;50.988;6.314;2023-03-17T05:59:41;3.33;;;2.90;;
3949;SDS011;53057;50.988;6.314;2023-03-17T06:02:08;7.33;;;3.17;;
3949;SDS011;53057;50.988;6.314;2023-03-17T06:04:35;4.93;;;3.50;;
3949;SDS011;53057;50.988;6.314;2023-03-17T06:07:02;5.40;;;3.20;;
3949;SDS011;53057;50.988;6.314;2023-03-17T06:09:30;6.27;;;3.90;;
3949;SDS011;53057;50.988;6.314;2023-03-17T06:11:56;4.13;;;3.33;;
3949;SDS011;53057;50.988;6.314;2023-03-17T06:14:23;5.40;;;3.20;;
3949;SDS011;53057;50.988;6.314;2023-03-17T06:16:52;8.10;;;4.03;;
3949;SDS011;53057;50.988;6.314;2023-03-17T06:19:19;5.60;;;3.73;;
3949;SDS011;53057;50.988;6.314;2023-03-17T06:21:45;7.40;;;3.13;;
3949;SDS011;53057;50.988;6.314;2023-03-17T06:24:12;4.63;;;3.60;;
3949;SDS011;53057;50.988;6.314;2023-03-17T06:26:39;17.87;;;3.03;;
3949;SDS011;53057;50.988;6.314;2023-03-17T06:29:06;8.43;;;3.53;;
3949;SDS011;53057;50.988;6.314;2023-03-17T06:31:37;6.10;;;4.03;;
3949;SDS011;53057;50.988;6.314;2023-03-17T06:34:04;3.70;;;3.27;;
3949;SDS011;53057;50.988;6.314;2023-03-17T06:36:31;5.17;;;2.80;;
3949;SDS011;53057;50.988;6.314;2023-03-17T06:38:58;4.83;;;3.37;;
3949;SDS011;53057;50.988;6.314;2023-03-17T06:41:25;5.90;;;4.20;;
3949;SDS011;53057;50.988;6.314;2023-03-17T06:43:52;11.03;;;3.57;;
3949;SDS011;53057;50.988;6.314;2023-03-17T06:46:19;8.20;;;4.53;;
3949;SDS011;53057;50.988;6.314;2023-03-17T06:48:46;6.80;;;4.43;;
3949;SDS011;53057;50.988;6.314;2023-03-17T06:51:13;8.57;;;4.57;;
3949;SDS011;53057;50.988;6.314;2023-03-17T06:53:39;11.13;;;4.27;;
3949;SDS011;53057;50.988;6.314;2023-03-17T06:56:06;7.17;;;4.47;;
3949;SDS011;53057;50.988;6.314;2023-03-17T06:58:42;5.17;;;3.47;;
3949;SDS011;53057;50.988;6.314;2023-03-17T07:01:09;9.13;;;3.80;;
3949;SDS011;53057;50.988;6.314;2023-03-17T07:03:35;6.40;;;3.83;;
3949;SDS011;53057;50.988;6.314;2023-03-17T07:06:03;10.57;;;3.17;;
3949;SDS011;53057;50.988;6.314;2023-03-17T07:08:30;7.70;;;4.60;;
3949;SDS011;53057;50.988;6.314;2023-03-17T07:10:57;10.00;;;3.60;;
3949;SDS011;53057;50.988;6.314;2023-03-17T07:13:24;6.53;;;3.90;;
3949;SDS011;53057;50.988;6.314;2023-03-17T07:15:51;10.40;;;3.80;;
3949;SDS011;53057;50.988;6.314;2023-03-17T07:18:20;6.73;;;3.47;;
3949;SDS011;53057;50.988;6.314;2023-03-17T07:20:47;3.27;;;2.93;;
3949;SDS011;53057;50.988;6.314;2023-03-17T07:23:14;9.40;;;5.17;;
3949;SDS011;53057;50.988;6.314;2023-03-17T07:25:41;14.77;;;4.97;;
3949;SDS011;53057;50.988;6.314;2023-03-17T07:28:09;6.80;;;3.93;;
3949;SDS011;53057;50.988;6.314;2023-03-17T07:30:35;5.40;;;3.07;;
3949;SDS011;53057;50.988;6.314;2023-03-17T07:33:02;5.10;;;3.30;;
3949;SDS011;53057;50.988;6.314;2023-03-17T07:35:29;10.30;;;3.30;;
3949;SDS011;53057;50.988;6.314;2023-03-17T07:37:57;6.30;;;3.47;;
3949;SDS011;53057;50.988;6.314;2023-03-17T07:40:24;17.47;;;10.67;;
3949;SDS011;53057;50.988;6.314;2023-03-17T07:42:51;5.53;;;3.80;;
3949;SDS011;53057;50.988;6.314;2023-03-17T07:45:17;3.90;;;3.50;;
3949;SDS011;53057;50.988;6.314;2023-03-17T07:47:44;6.17;;;3.43;;
3949;SDS011;53057;50.988;6.314;2023-03-17T07:50:11;7.90;;;4.23;;
3949;SDS011;53057;50.988;6.314;2023-03-17T07:52:39;6.30;;;3.47;;
3949;SDS011;53057;50.988;6.314;2023-03-17T07:55:06;13.50;;;4.30;;
3949;SDS011;53057;50.988;6.314;2023-03-17T07:57:36;5.00;;;3.67;;
3949;SDS011;53057;50.988;6.314;2023-03-17T08:00:03;7.00;;;4.33;;
3949;SDS011;53057;50.988;6.314;2023-03-17T08:02:36;7.80;;;3.33;;
3949;SDS011;53057;50.988;6.314;2023-03-17T08:05:03;8.30;;;3.10;;
3949;SDS011;53057;50.988;6.314;2023-03-17T08:07:31;5.90;;;3.57;;
3949;SDS011;53057;50.988;6.314;2023-03-17T08:09:57;7.43;;;3.53;;
3949;SDS011;53057;50.988;6.314;2023-03-17T08:12:24;11.53;;;4.07;;
3949;SDS011;53057;50.988;6.314;2023-03-17T08:14:51;5.70;;;4.50;;
3949;SDS011;53057;50.988;6.314;2023-03-17T08:17:18;5.80;;;4.13;;
3949;SDS011;53057;50.988;6.314;2023-03-17T08:19:45;8.10;;;4.23;;
3949;SDS011;53057;50.988;6.314;2023-03-17T08:22:11;4.80;;;4.00;;
3949;SDS011;53057;50.988;6.314;2023-03-17T08:24:38;9.70;;;5.00;;
3949;SDS011;53057;50.988;6.314;2023-03-17T08:27:08;10.10;;;4.47;;
3949;SDS011;53057;50.988;6.314;2023-03-17T08:29:34;6.60;;;3.30;;
3949;SDS011;53057;50.988;6.314;2023-03-17T08:32:01;10.53;;;3.50;;
3949;SDS011;53057;50.988;6.314;2023-03-17T08:34:28;3.53;;;2.70;;
3949;SDS011;53057;50.988;6.314;2023-03-17T08:36:55;6.13;;;4.27;;
3949;SDS011;53057;50.988;6.314;2023-03-17T08:39:22;5.70;;;3.37;;
3949;SDS011;53057;50.988;6.314;2023-03-17T08:41:49;4.03;;;3.20;;
3949;SDS011;53057;50.988;6.314;2023-03-17T08:44:16;4.13;;;2.57;;
3949;SDS011;53057;50.988;6.314;2023-03-17T08:46:43;4.20;;;2.80;;
3949;SDS011;53057;50.988;6.314;2023-03-17T08:49:10;11.83;;;3.90;;
3949;SDS011;53057;50.988;6.314;2023-03-17T08:51:37;8.43;;;3.00;;
3949;SDS011;53057;50.988;6.314;2023-03-17T08:54:04;3.40;;;2.77;;
3949;SDS011;53057;50.988;6.314;2023-03-17T08:56:31;5.40;;;2.80;;
3949;SDS011;53057;50.988;6.314;2023-03-17T08:58:58;9.23;;;3.10;;
3949;SDS011;53057;50.988;6.314;2023-03-17T09:01:25;3.23;;;2.93;;
3949;SDS011;53057;50.988;6.314;2023-03-17T09:03:53;5.17;;;2.70;;
3949;SDS011;53057;50.988;6.314;2023-03-17T09:06:20;3.27;;;2.63;;
3949;SDS011;53057;50.988;6.314;2023-03-17T09:08:47;4.80;;;2.63;;
3949;SDS011;53057;50.988;6.314;2023-03-17T09:11:21;3.53;;;3.20;;
3949;SDS011;53057;50.988;6.314;2023-03-17T09:13:48;4.73;;;2.63;;
3949;SDS011;53057;50.988;6.314;2023-03-17T09:16:16;5.97;;;2.03;;
3949;SDS011;53057;50.988;6.314;2023-03-17T09:18:44;3.53;;;2.27;;
3949;SDS011;53057;50.988;6.314;2023-03-17T09:21:12;4.70;;;2.90;;
3949;SDS011;53057;50.988;6.314;2023-03-17T09:23:39;4.37;;;3.50;;
3949;SDS011;53057;50.988;6.314;2023-03-17T09:26:06;5.07;;;3.47;;
3949;SDS011;53057;50.988;6.314;2023-03-17T09:28:34;8.40;;;2.63;;
3949;SDS011;53057;50.988;6.314;2023-03-17T09:31:02;4.80;;;3.10;;
3949;SDS011;53057;50.988;6.314;2023-03-17T09:33:29;9.03;;;3.10;;
3949;SDS011;53057;50.988;6.314;2023-03-17T09:35:56;6.87;;;2.90;;
3949;SDS011;53057;50.988;6.314;2023-03-17T09:38:23;4.87;;;4.40;;
3949;SDS011;53057;50.988;6.314;2023-03-17T09:40:52;3.43;;;2.77;;
3949;SDS011;53057;50.988;6.314;2023-03-17T09:46:25;7.20;;;3.27;;
3949;SDS011;53057;50.988;6.314;2023-03-17T09:49:00;6.60;;;2.70;;
3949;SDS011;53057;50.988;6.314;2023-03-17T09:51:29;7.80;;;3.40;;
3949;SDS011;53057;50.988;6.314;2023-03-17T09:53:58;4.87;;;2.53;;
3949;SDS011;53057;50.988;6.314;2023-03-17T09:56:26;5.50;;;2.77;;
3949;SDS011;53057;50.988;6.314;2023-03-17T09:58:54;3.93;;;2.50;;
3949;SDS011;53057;50.988;6.314;2023-03-17T10:01:22;4.43;;;3.17;;
3949;SDS011;53057;50.988;6.314;2023-03-17T10:03:49;6.13;;;3.60;;
3949;SDS011;53057;50.988;6.314;2023-03-17T10:06:28;5.87;;;3.07;;
3949;SDS011;53057;50.988;6.314;2023-03-17T10:09:02;15.27;;;3.40;;
3949;SDS011;53057;50.988;6.314;2023-03-17T10:14:10;4.97;;;2.53;;
3949;SDS011;53057;50.988;6.314;2023-03-17T10:16:41;7.47;;;3.20;;
3949;SDS011;53057;50.988;6.314;2023-03-17T10:19:18;3.73;;;2.40;;
3949;SDS011;53057;50.988;6.314;2023-03-17T10:21:48;4.93;;;2.90;;
3949;SDS011;53057;50.988;6.314;2023-03-17T10:24:15;4.47;;;2.40;;
3949;SDS011;53057;50.988;6.314;2023-03-17T10:26:43;5.63;;;2.50;;
3949;SDS011;53057;50.988;6.314;2023-03-17T10:29:21;8.10;;;2.30;;
3949;SDS011;53057;50.988;6.314;2023-03-17T10:31:49;3.63;;;2.73;;
3949;SDS011;53057;50.988;6.314;2023-03-17T10:34:18;4.60;;;2.90;;
3949;SDS011;53057;50.988;6.314;2023-03-17T10:36:47;4.33;;;2.13;;
3949;SDS011;53057;50.988;6.314;2023-03-17T10:39:18;3.10;;;2.20;;
3949;SDS011;53057;50.988;6.314;2023-03-17T10:41:47;11.83;;;6.30;;
3949;SDS011;53057;50.988;6.314;2023-03-17T10:44:28;5.90;;;2.30;;
3949;SDS011;53057;50.988;6.314;2023-03-17T10:47:00;5.43;;;1.87;;
3949;SDS011;53057;50.988;6.314;2023-03-17T10:49:27;4.00;;;2.13;;
3949;SDS011;53057;50.988;6.314;2023-03-17T10:51:57;3.87;;;3.30;;
3949;SDS011;53057;50.988;6.314;2023-03-17T10:54:24;4.70;;;2.17;;
3949;SDS011;53057;50.988;6.314;2023-03-17T10:56:54;2.33;;;2.03;;
3949;SDS011;53057;50.988;6.314;2023-03-17T10:59:26;3.30;;;2.20;;
3949;SDS011;53057;50.988;6.314;2023-03-17T11:02:00;3.00;;;2.27;;
3949;SDS011;53057;50.988;6.314;2023-03-17T11:04:34;7.43;;;3.03;;
3949;SDS011;53057;50.988;6.314;2023-03-17T11:07:08;6.37;;;3.00;;
3949;SDS011;53057;50.988;6.314;2023-03-17T11:09:40;7.53;;;2.37;;
3949;SDS011;53057;50.988;6.314;2023-03-17T11:12:18;7.43;;;2.23;;
3949;SDS011;53057;50.988;6.314;2023-03-17T11:14:46;6.03;;;2.10;;
3949;SDS011;53057;50.988;6.314;2023-03-17T11:17:17;4.70;;;2.60;;
3949;SDS011;53057;50.988;6.314;2023-03-17T11:22:28;5.03;;;3.03;;
3949;SDS011;53057;50.988;6.314;2023-03-17T11:25:14;6.20;;;2.20;;
3949;SDS011;53057;50.988;6.314;2023-03-17T11:27:53;6.10;;;2.70;;
3949;SDS011;53057;50.988;6.314;2023-03-17T11:30:27;5.50;;;2.10;;
3949;SDS011;53057;50.988;6.314;2023-03-17T11:32:56;6.73;;;2.73;;
3949;SDS011;53057;50.988;6.314;2023-03-17T11:40:56;6.20;;;2.20;;
3949;SDS011;53057;50.988;6.314;2023-03-17T11:46:00;7.60;;;2.80;;
3949;SDS011;53057;50.988;6.314;2023-03-17T11:48:33;3.67;;;1.73;;
3949;SDS011;53057;50.988;6.314;2023-03-17T11:51:13;4.37;;;2.50;;
3949;SDS011;53057;50.988;6.314;2023-03-17T11:56:17;5.80;;;3.30;;
3949;SDS011;53057;50.988;6.314;2023-03-17T11:58:46;6.90;;;3.37;;
3949;SDS011;53057;50.988;6.314;2023-03-17T12:01:25;3.33;;;1.93;;
3949;SDS011;53057;50.988;6.314;2023-03-17T12:06:34;3.40;;;2.13;;
3949;SDS011;53057;50.988;6.314;2023-03-17T12:09:04;2.70;;;1.60;;
3949;SDS011;53057;50.988;6.314;2023-03-17T12:11:34;2.60;;;1.90;;
3949;SDS011;53057;50.988;6.314;2023-03-17T12:14:05;8.30;;;2.53;;
3949;SDS011;53057;50.988;6.314;2023-03-17T12:16:40;9.50;;;2.67;;
3949;SDS011;53057;50.988;6.314;2023-03-17T12:19:10;6.57;;;2.60;;
3949;SDS011;53057;50.988;6.314;2023-03-17T12:21:48;9.13;;;2.37;;
3949;SDS011;53057;50.988;6.314;2023-03-17T12:26:58;7.80;;;2.23;;
3949;SDS011;53057;50.988;6.314;2023-03-17T12:32:08;5.73;;;2.60;;
3949;SDS011;53057;50.988;6.314;2023-03-17T12:37:08;5.10;;;2.03;;
3949;SDS011;53057;50.988;6.314;2023-03-17T12:39:35;3.33;;;1.80;;
3949;SDS011;53057;50.988;6.314;2023-03-17T12:42:15;2.27;;;2.07;;
3949;SDS011;53057;50.988;6.314;2023-03-17T12:44:50;2.60;;;1.83;;
3949;SDS011;53057;50.988;6.314;2023-03-17T12:52:43;3.43;;;2.33;;
3949;SDS011;53057;50.988;6.314;2023-03-17T12:55:14;10.20;;;2.60;;
3949;SDS011;53057;50.988;6.314;2023-03-17T12:57:42;4.17;;;2.00;;
3949;SDS011;53057;50.988;6.314;2023-03-17T13:00:18;4.43;;;2.77;;
3949;SDS011;53057;50.988;6.314;2023-03-17T13:02:50;21.70;;;4.30;;
3949;SDS011;53057;50.988;6.314;2023-03-17T13:05:17;10.90;;;3.30;;
3949;SDS011;53057;50.988;6.314;2023-03-17T13:07:55;6.63;;;2.73;;
3949;SDS011;53057;50.988;6.314;2023-03-17T13:20:41;2.47;;;1.60;;
3949;SDS011;53057;50.988;6.314;2023-03-17T13:45:54;2.90;;;2.60;;
3949;SDS011;53057;50.988;6.314;2023-03-17T13:53:35;3.37;;;2.20;;
3949;SDS011;53057;50.988;6.314;2023-03-17T13:56:24;2.50;;;1.97;;
3949;SDS011;53057;50.988;6.314;2023-03-17T14:01:16;13.33;;;2.53;;
3949;SDS011;53057;50.988;6.314;2023-03-17T14:03:46;3.50;;;2.10;;
3949;SDS011;53057;50.988;6.314;2023-03-17T14:06:14;5.60;;;2.07;;
3949;SDS011;53057;50.988;6.314;2023-03-17T14:08:43;7.00;;;1.80;;
3949;SDS011;53057;50.988;6.314;2023-03-17T14:11:18;5.60;;;2.37;;
3949;SDS011;53057;50.988;6.314;2023-03-17T14:16:15;4.90;;;1.90;;
3949;SDS011;53057;50.988;6.314;2023-03-17T14:18:48;4.43;;;2.83;;
3949;SDS011;53057;50.988;6.314;2023-03-17T14:21:23;6.83;;;2.50;;
3949;SDS011;53057;50.988;6.314;2023-03-17T14:23:53;4.50;;;2.67;;
3949;SDS011;53057;50.988;6.314;2023-03-17T14:26:21;3.97;;;1.70;;
3949;SDS011;53057;50.988;6.314;2023-03-17T14:28:48;15.20;;;2.03;;
3949;SDS011;53057;50.988;6.314;2023-03-17T14:31:21;5.73;;;2.10;;
3949;SDS011;53057;50.988;6.314;2023-03-17T14:33:59;3.50;;;2.63;;
3949;SDS011;53057;50.988;6.314;2023-03-17T14:36:26;3.43;;;1.90;;
3949;SDS011;53057;50.988;6.314;2023-03-17T14:38:54;2.00;;;1.67;;
3949;SDS011;53057;50.988;6.314;2023-03-17T14:41:25;3.43;;;2.10;;
3949;SDS011;53057;50.988;6.314;2023-03-17T14:43:55;2.87;;;1.70;;
3949;SDS011;53057;50.988;6.314;2023-03-17T14:46:23;6.83;;;2.87;;
3949;SDS011;53057;50.988;6.314;2023-03-17T14:48:55;6.30;;;2.10;;
3949;SDS011;53057;50.988;6.314;2023-03-17T14:51:32;4.10;;;2.20;;
3949;SDS011;53057;50.988;6.314;2023-03-17T14:54:44;4.37;;;2.10;;
3949;SDS011;53057;50.988;6.314;2023-03-17T14:56:52;2.17;;;1.97;;
3949;SDS011;53057;50.988;6.314;2023-03-17T14:59:27;2.33;;;1.97;;
3949;SDS011;53057;50.988;6.314;2023-03-17T15:01:58;3.03;;;1.80;;
3949;SDS011;53057;50.988;6.314;2023-03-17T15:04:26;5.30;;;2.60;;
3949;SDS011;53057;50.988;6.314;2023-03-17T15:06:58;4.07;;;2.00;;
3949;SDS011;53057;50.988;6.314;2023-03-17T15:09:26;7.93;;;3.93;;
3949;SDS011;53057;50.988;6.314;2023-03-17T15:11:53;2.93;;;2.10;;
3949;SDS011;53057;50.988;6.314;2023-03-17T15:14:25;2.27;;;2.00;;
3949;SDS011;53057;50.988;6.314;2023-03-17T15:16:53;2.50;;;1.70;;
3949;SDS011;53057;50.988;6.314;2023-03-17T15:19:24;2.03;;;1.93;;
3949;SDS011;53057;50.988;6.314;2023-03-17T15:21:54;3.03;;;2.63;;
3949;SDS011;53057;50.988;6.314;2023-03-17T15:24:31;9.30;;;3.00;;
3949;SDS011;53057;50.988;6.314;2023-03-17T15:27:00;5.23;;;4.17;;
3949;SDS011;53057;50.988;6.314;2023-03-17T15:29:27;3.30;;;1.50;;
3949;SDS011;53057;50.988;6.314;2023-03-17T15:32:01;7.83;;;3.30;;
3949;SDS011;53057;50.988;6.314;2023-03-17T15:34:29;8.17;;;3.90;;
3949;SDS011;53057;50.988;6.314;2023-03-17T15:36:55;4.23;;;3.00;;
3949;SDS011;53057;50.988;6.314;2023-03-17T15:39:23;12.07;;;3.17;;
3949;SDS011;53057;50.988;6.314;2023-03-17T15:41:49;2.80;;;2.43;;
3949;SDS011;53057;50.988;6.314;2023-03-17T15:44:16;2.43;;;1.80;;
3949;SDS011;53057;50.988;6.314;2023-03-17T15:46:43;8.07;;;1.40;;
3949;SDS011;53057;50.988;6.314;2023-03-17T15:49:09;9.53;;;6.43;;
3949;SDS011;53057;50.988;6.314;2023-03-17T15:51:36;2.63;;;2.03;;
3949;SDS011;53057;50.988;6.314;2023-03-17T15:54:03;4.73;;;3.37;;
3949;SDS011;53057;50.988;6.314;2023-03-17T15:56:30;42.80;;;21.20;;
3949;SDS011;53057;50.988;6.314;2023-03-17T15:58:56;33.53;;;18.03;;
3949;SDS011;53057;50.988;6.314;2023-03-17T16:01:23;54.27;;;24.90;;
3949;SDS011;53057;50.988;6.314;2023-03-17T16:03:53;231.47;;;126.60;;
3949;SDS011;53057;50.988;6.314;2023-03-17T16:06:20;137.90;;;76.43;;
3949;SDS011;53057;50.988;6.314;2023-03-17T16:08:48;23.10;;;11.83;;
3949;SDS011;53057;50.988;6.314;2023-03-17T16:11:19;22.67;;;10.93;;
3949;SDS011;53057;50.988;6.314;2023-03-17T16:13:50;10.50;;;7.10;;
3949;SDS011;53057;50.988;6.314;2023-03-17T16:16:24;10.87;;;5.73;;
3949;SDS011;53057;50.988;6.314;2023-03-17T16:18:52;10.83;;;5.90;;
3949;SDS011;53057;50.988;6.314;2023-03-17T16:21:19;14.83;;;8.03;;
3949;SDS011;53057;50.988;6.314;2023-03-17T16:23:46;12.97;;;8.13;;
3949;SDS011;53057;50.988;6.314;2023-03-17T16:26:14;12.83;;;5.07;;
3949;SDS011;53057;50.988;6.314;2023-03-17T16:28:43;12.40;;;4.13;;
3949;SDS011;53057;50.988;6.314;2023-03-17T16:31:15;30.13;;;7.60;;
3949;SDS011;53057;50.988;6.314;2023-03-17T16:33:42;12.33;;;3.60;;